createdAt,value
2023-02-19T00:00:18.172Z,96495.48
2023-02-19T00:03:06.899Z,96490.55
2023-02-19T00:05:36.240Z,96490.06
2023-02-19T00:08:03.319Z,96501.49
2023-02-19T00:10:30.727Z,96491.92
2023-02-19T00:13:00.638Z,96489.23
2023-02-19T00:15:27.411Z,96492.99
2023-02-19T00:17:56.928Z,96490.25
2023-02-19T00:20:25.186Z,96485.73
2023-02-19T00:22:52.407Z,96470.98
2023-02-19T00:25:22.053Z,96481.13
2023-02-19T00:27:49.178Z,96494.73
2023-02-19T00:30:19.227Z,96502.84
2023-02-19T00:32:51.088Z,96484.62
2023-02-19T00:35:18.258Z,96498.20
2023-02-19T00:37:48.320Z,96505.04
2023-02-19T00:40:19.413Z,96511.16
2023-02-19T00:42:46.653Z,96506.48
2023-02-19T00:45:20.363Z,96512.16
2023-02-19T00:48:22.663Z,96503.81
2023-02-19T00:50:50.471Z,96497.13
2023-02-19T00:53:27.266Z,96512.04
2023-02-19T00:56:00.645Z,96506.69
2023-02-19T00:58:27.985Z,96514.00
2023-02-19T01:00:58.977Z,96517.05
2023-02-19T01:03:29.203Z,96505.70
2023-02-19T01:06:09.716Z,96513.58
2023-02-19T01:08:50.037Z,96518.51
2023-02-19T01:11:18.871Z,96502.10
2023-02-19T01:13:50.326Z,96509.81
2023-02-19T01:16:24.228Z,96499.94
2023-02-19T01:18:53.418Z,96490.95
2023-02-19T01:21:24.604Z,96499.70
2023-02-19T01:23:54.329Z,96496.59
2023-02-19T01:26:28.019Z,96498.27
2023-02-19T01:28:56.160Z,96523.71
2023-02-19T01:31:27.911Z,96496.23
2023-02-19T01:33:58.651Z,96494.63
2023-02-19T01:36:37.220Z,96496.98
2023-02-19T01:39:10.672Z,96496.77
2023-02-19T01:41:40.100Z,96493.90
2023-02-19T01:44:14.587Z,96498.92
2023-02-19T01:46:43.675Z,96494.58
2023-02-19T01:49:26.272Z,96506.29
2023-02-19T01:52:03.996Z,96495.83
2023-02-19T01:54:42.826Z,96504.52
2023-02-19T01:57:30.303Z,96513.98
2023-02-19T02:00:03.871Z,96508.71
2023-02-19T02:02:57.872Z,96509.73
2023-02-19T02:05:38.737Z,96510.96
2023-02-19T02:08:24.302Z,96517.77
2023-02-19T02:10:52.589Z,96519.33
2023-02-19T02:13:20.688Z,96521.45
2023-02-19T02:16:02.854Z,96515.28
2023-02-19T02:18:57.595Z,96522.34
2023-02-19T02:21:51.450Z,96527.95
2023-02-19T02:25:19.705Z,96533.69
2023-02-19T02:28:22.847Z,96533.92
2023-02-19T02:30:59.242Z,96543.70
2023-02-19T02:33:44.316Z,96542.96
2023-02-19T02:36:20.768Z,96548.98
2023-02-19T02:38:49.710Z,96555.12
2023-02-19T02:41:32.425Z,96563.89
2023-02-19T02:44:00.905Z,96564.64
2023-02-19T02:46:34.031Z,96580.80
2023-02-19T02:49:19.061Z,96575.88
2023-02-19T02:51:55.317Z,96581.64
2023-02-19T02:54:51.853Z,96581.44
2023-02-19T02:57:25.977Z,96589.49
2023-02-19T02:59:55.978Z,96583.60
2023-02-19T03:02:31.242Z,96583.44
2023-02-19T03:05:33.400Z,96584.09
2023-02-19T03:08:18.415Z,96588.12
2023-02-19T03:10:57.320Z,96580.15
2023-02-19T03:13:57.966Z,96583.13
2023-02-19T03:16:50.718Z,96587.56
2023-02-19T03:19:23.364Z,96586.96
2023-02-19T03:22:32.493Z,96590.34
2023-02-19T03:25:28.512Z,96601.87
2023-02-19T03:28:09.501Z,96614.70
2023-02-19T03:33:34.128Z,96626.07
2023-02-19T03:36:05.888Z,96629.08
2023-02-19T03:39:03.383Z,96635.21
2023-02-19T03:41:52.458Z,96638.00
2023-02-19T03:44:27.072Z,96641.27
2023-02-19T03:47:08.378Z,96643.86
2023-02-19T03:49:52.068Z,96639.20
2023-02-19T03:52:38.405Z,96635.98
2023-02-19T03:55:23.260Z,96637.05
2023-02-19T03:57:58.988Z,96640.78
2023-02-19T04:00:46.063Z,96640.74
2023-02-19T04:03:26.240Z,96641.48
2023-02-19T04:06:05.866Z,96636.67
2023-02-19T04:08:53.933Z,96638.46
2023-02-19T04:11:29.587Z,96636.45
2023-02-19T04:14:33.444Z,96638.98
2023-02-19T04:17:26.537Z,96641.61
2023-02-19T04:19:59.681Z,96644.73
2023-02-19T04:22:32.120Z,96647.73
2023-02-19T04:25:23.578Z,96644.23
2023-02-19T04:27:55.309Z,96647.27
2023-02-19T04:30:23.092Z,96648.94
2023-02-19T04:32:52.786Z,96650.17
2023-02-19T04:35:21.592Z,96654.27
2023-02-19T04:38:04.283Z,96655.78
2023-02-19T04:40:32.200Z,96653.39
2023-02-19T04:43:00.377Z,96657.07
2023-02-19T04:45:38.644Z,96665.64
2023-02-19T04:48:08.355Z,96670.55
2023-02-19T04:50:48.726Z,96666.54
2023-02-19T04:53:17.947Z,96659.86
2023-02-19T04:55:56.772Z,96659.13
2023-02-19T04:58:40.975Z,96655.23
2023-02-19T05:01:29.937Z,96663.38
2023-02-19T05:15:00.283Z,96652.02
2023-02-19T05:17:28.511Z,96639.90
2023-02-19T05:19:56.733Z,96646.25
2023-02-19T05:22:24.985Z,96643.29
2023-02-19T05:24:53.300Z,96639.84
2023-02-19T05:27:21.662Z,96641.40
2023-02-19T05:29:49.887Z,96644.17
2023-02-19T05:32:18.481Z,96644.98
2023-02-19T05:34:49.846Z,96650.41
2023-02-19T05:37:18.302Z,96648.23
2023-02-19T05:39:46.554Z,96655.91
2023-02-19T05:42:15.637Z,96659.05
2023-02-19T05:44:46.591Z,96667.50
2023-02-19T05:47:16.670Z,96661.39
2023-02-19T05:49:45.430Z,96660.89
2023-02-19T05:52:13.614Z,96658.90
2023-02-19T05:54:41.894Z,96657.41
2023-02-19T05:57:10.149Z,96648.80
2023-02-19T05:59:38.382Z,96651.17
2023-02-19T06:02:10.462Z,96651.47
2023-02-19T06:04:38.565Z,96654.66
2023-02-19T06:07:06.746Z,96653.65
2023-02-19T06:09:35.059Z,96650.48
2023-02-19T06:12:03.537Z,96639.37
2023-02-19T06:14:32.744Z,96633.38
2023-02-19T06:17:03.000Z,96630.65
2023-02-19T06:19:32.502Z,96631.80
2023-02-19T06:22:00.768Z,96619.95
2023-02-19T06:24:30.980Z,96615.84
2023-02-19T06:26:59.424Z,96610.50
2023-02-19T06:29:28.169Z,96610.35
2023-02-19T06:31:56.658Z,96613.76
2023-02-19T06:34:26.449Z,96616.66
2023-02-19T06:36:55.024Z,96623.08
2023-02-19T06:39:24.635Z,96619.11
2023-02-19T06:41:56.660Z,96616.33
2023-02-19T06:44:25.526Z,96614.54
2023-02-19T06:46:56.927Z,96610.64
2023-02-19T06:49:31.938Z,96610.05
2023-02-19T06:52:07.586Z,96612.23
2023-02-19T06:54:38.413Z,96620.10
2023-02-19T06:57:07.530Z,96623.03
2023-02-19T06:59:35.822Z,96628.84
2023-02-19T07:02:04.580Z,96628.05
2023-02-19T07:04:32.888Z,96631.85
2023-02-19T07:07:01.110Z,96631.75
2023-02-19T07:09:29.378Z,96631.50
2023-02-19T07:11:57.616Z,96631.11
2023-02-19T07:14:26.627Z,96622.21
2023-02-19T07:16:55.373Z,96610.62
2023-02-19T07:19:24.157Z,96606.27
2023-02-19T07:21:54.134Z,96602.00
2023-02-19T07:24:24.193Z,96599.45
2023-02-19T07:27:13.154Z,96600.81
2023-02-19T07:29:43.959Z,96602.81
2023-02-19T07:32:12.202Z,96606.70
2023-02-19T07:34:42.893Z,96611.95
2023-02-19T07:37:26.814Z,96614.80
2023-02-19T07:42:43.270Z,96610.91
2023-02-19T07:45:14.053Z,96609.02
2023-02-19T07:47:42.493Z,96604.94
2023-02-19T07:50:13.749Z,96609.80
2023-02-19T07:52:42.075Z,96607.55
2023-02-19T07:55:10.246Z,96605.83
2023-02-19T07:57:38.496Z,96608.30
2023-02-19T08:00:07.303Z,96598.11
2023-02-19T08:02:59.732Z,96600.54
2023-02-19T08:05:30.718Z,96593.44
2023-02-19T08:07:59.827Z,96600.98
2023-02-19T08:10:46.876Z,96596.39
2023-02-19T08:13:20.265Z,96594.54
2023-02-19T08:15:56.322Z,96591.98
2023-02-19T08:18:28.134Z,96595.52
2023-02-19T08:20:57.715Z,96594.04
2023-02-19T08:23:31.133Z,96590.27
2023-02-19T08:26:01.162Z,96585.08
2023-02-19T08:28:30.329Z,96578.61
2023-02-19T08:31:02.118Z,96574.74
2023-02-19T08:33:30.761Z,96569.17
2023-02-19T08:36:04.695Z,96566.15
2023-02-19T08:38:35.979Z,96571.17
2023-02-19T08:41:06.364Z,96563.30
2023-02-19T08:43:34.996Z,96567.23
2023-02-19T08:46:07.796Z,96555.66
2023-02-19T08:48:38.328Z,96561.55
2023-02-19T08:51:10.495Z,96568.23
2023-02-19T08:53:40.169Z,96561.58
2023-02-19T08:56:14.321Z,96560.02
2023-02-19T08:58:43.815Z,96547.94
2023-02-19T09:01:15.303Z,96542.16
2023-02-19T09:03:44.193Z,96539.88
2023-02-19T09:06:18.204Z,96533.36
2023-02-19T09:08:46.784Z,96527.85
2023-02-19T09:11:16.603Z,96528.82
2023-02-19T09:13:46.484Z,96532.71
2023-02-19T09:16:22.742Z,96529.14
2023-02-19T09:18:55.860Z,96530.50
2023-02-19T09:21:43.759Z,96537.33
2023-02-19T09:24:12.268Z,96539.74
2023-02-19T09:26:40.773Z,96548.39
2023-02-19T09:29:09.292Z,96549.84
2023-02-19T09:31:38.381Z,96547.59
2023-02-19T09:34:07.049Z,96546.51
2023-02-19T09:36:35.096Z,96543.39
2023-02-19T09:39:04.845Z,96545.41
2023-02-19T09:41:37.918Z,96538.60
2023-02-19T09:44:10.331Z,96537.60
2023-02-19T09:46:51.701Z,96539.34
2023-02-19T09:49:34.172Z,96537.50
2023-02-19T09:52:31.689Z,96537.47
2023-02-19T09:55:05.464Z,96557.00
2023-02-19T09:57:48.291Z,96530.52
2023-02-19T10:03:41.557Z,96521.98
2023-02-19T10:06:12.694Z,96517.70
2023-02-19T10:08:42.177Z,96531.08
2023-02-19T10:11:12.984Z,96534.84
2023-02-19T10:14:01.657Z,96536.42
2023-02-19T10:16:30.753Z,96546.42
2023-02-19T10:19:03.219Z,96555.83
2023-02-19T10:21:31.594Z,96525.33
2023-02-19T10:24:03.187Z,96541.21
2023-02-19T10:26:36.783Z,96520.17
2023-02-19T10:29:07.209Z,96524.63
2023-02-19T10:31:35.461Z,96516.89
2023-02-19T10:34:04.570Z,96528.32
2023-02-19T10:36:41.790Z,96509.55
2023-02-19T10:39:21.995Z,96507.60
2023-02-19T10:41:52.045Z,96508.63
2023-02-19T10:44:32.205Z,96513.30
2023-02-19T10:47:01.895Z,96504.59
2023-02-19T10:49:33.364Z,96502.94
2023-02-19T10:52:30.687Z,96512.20
2023-02-19T10:55:24.154Z,96509.66
2023-02-19T10:57:53.600Z,96500.23
2023-02-19T11:00:39.596Z,96492.98
2023-02-19T11:03:21.386Z,96490.58
2023-02-19T11:06:10.801Z,96511.92
2023-02-19T11:08:44.964Z,96519.17
2023-02-19T11:11:50.743Z,96497.40
2023-02-19T11:14:22.801Z,96502.95
2023-02-19T11:16:59.694Z,96534.33
2023-02-19T11:19:31.394Z,96508.02
2023-02-19T11:22:01.581Z,96522.90
2023-02-19T11:24:35.049Z,96522.01
2023-02-19T11:27:17.168Z,96483.93
2023-02-19T11:29:45.341Z,96496.50
2023-02-19T11:32:29.905Z,96487.60
2023-02-19T11:35:17.803Z,96482.46
2023-02-19T11:38:01.031Z,96495.21
2023-02-19T11:40:44.998Z,96477.21
2023-02-19T11:43:39.802Z,96475.09
2023-02-19T11:46:26.392Z,96463.34
2023-02-19T11:49:24.246Z,96456.99
2023-02-19T11:52:02.005Z,96457.61
2023-02-19T11:54:52.865Z,96444.98
2023-02-19T11:57:36.388Z,96460.18
2023-02-19T12:00:28.017Z,96442.77
2023-02-19T12:03:14.718Z,96449.39
2023-02-19T12:06:05.835Z,96435.69
2023-02-19T12:08:56.812Z,96438.30
2023-02-19T12:11:41.119Z,96434.77
2023-02-19T12:14:15.222Z,96447.36
2023-02-19T12:17:02.528Z,96434.88
2023-02-19T12:20:08.147Z,96435.63
2023-02-19T12:22:51.624Z,96435.56
2023-02-19T12:25:54.672Z,96430.95
2023-02-19T12:28:50.774Z,96428.02
2023-02-19T12:31:40.452Z,96427.51
2023-02-19T12:34:08.800Z,96424.60
2023-02-19T12:36:50.826Z,96408.54
2023-02-19T12:39:19.141Z,96412.73
2023-02-19T12:42:11.501Z,96414.20
2023-02-19T12:44:44.295Z,96426.55
2023-02-19T12:47:25.995Z,96424.06
2023-02-19T12:50:13.321Z,96434.23
2023-02-19T12:52:43.343Z,96434.23
2023-02-19T12:55:39.426Z,96462.84
2023-02-19T12:58:16.815Z,96454.38
2023-02-19T13:00:52.763Z,96443.73
2023-02-19T13:03:39.775Z,96437.92
2023-02-19T13:06:18.901Z,96451.45
2023-02-19T13:09:22.607Z,96445.23
2023-02-19T13:11:53.836Z,96437.75
2023-02-19T13:14:31.016Z,96440.57
2023-02-19T13:17:13.485Z,96425.33
2023-02-19T13:19:41.644Z,96439.85
2023-02-19T13:22:46.250Z,96438.10
2023-02-19T13:25:16.872Z,96433.20
2023-02-19T13:28:19.165Z,96433.11
2023-02-19T13:30:59.718Z,96417.05
2023-02-19T13:33:47.543Z,96423.95
2023-02-19T13:36:30.133Z,96401.77
2023-02-19T13:39:00.099Z,96410.64
2023-02-19T13:42:01.663Z,96401.10
2023-02-19T13:44:33.125Z,96397.26
2023-02-19T13:47:01.336Z,96408.66
2023-02-19T13:49:29.684Z,96406.02
2023-02-19T13:52:04.174Z,96401.43
2023-02-19T13:54:36.100Z,96396.63
2023-02-19T13:57:23.945Z,96383.63
2023-02-19T13:59:54.488Z,96385.85
2023-02-19T14:02:35.146Z,96395.33
2023-02-19T14:05:17.881Z,96378.52
2023-02-19T14:07:53.627Z,96383.08
2023-02-19T14:10:55.218Z,96399.05
2023-02-19T14:13:57.068Z,96396.70
2023-02-19T14:16:31.369Z,96398.61
2023-02-19T14:19:15.204Z,96402.54
2023-02-19T14:21:46.554Z,96397.14
2023-02-19T14:24:16.780Z,96392.22
2023-02-19T14:26:45.027Z,96388.98
2023-02-19T14:29:17.021Z,96383.27
2023-02-19T14:31:48.538Z,96377.83
2023-02-19T14:34:22.948Z,96372.65
2023-02-19T14:37:01.336Z,96373.88
2023-02-19T14:39:33.790Z,96371.34
2023-02-19T14:42:23.900Z,96356.46
2023-02-19T14:45:02.021Z,96365.89
2023-02-19T14:47:34.643Z,96358.15
2023-02-19T14:50:28.828Z,96352.60
2023-02-19T14:53:04.580Z,96353.67
2023-02-19T14:55:40.529Z,96340.55
2023-02-19T14:58:40.723Z,96338.20
2023-02-19T15:01:26.439Z,96336.27
2023-02-19T15:03:56.663Z,96334.27
2023-02-19T15:06:26.693Z,96325.45
2023-02-19T15:09:00.071Z,96312.35
2023-02-19T15:11:32.564Z,96303.02
2023-02-19T15:14:04.094Z,96297.75
2023-02-19T15:16:35.741Z,96296.84
2023-02-19T15:19:08.248Z,96295.73
2023-02-19T15:21:42.406Z,96300.23
2023-02-19T15:24:13.851Z,96299.27
2023-02-19T15:26:45.091Z,96299.97
2023-02-19T15:29:16.073Z,96303.02
2023-02-19T15:31:50.341Z,96303.09
2023-02-19T15:34:22.458Z,96307.14
2023-02-19T15:37:12.439Z,96317.33
2023-02-19T15:39:46.714Z,96326.77
2023-02-19T15:42:21.633Z,96335.80
2023-02-19T15:45:34.384Z,96352.19
2023-02-19T15:48:18.693Z,96378.38
2023-02-19T15:50:54.607Z,96377.05
2023-02-19T15:53:26.441Z,96371.61
2023-02-19T15:56:16.829Z,96354.11
2023-02-19T15:59:12.838Z,96373.23
2023-02-19T16:01:42.068Z,96380.48
2023-02-19T16:04:15.851Z,96373.86
2023-02-19T16:07:02.174Z,96380.58
2023-02-19T16:09:38.827Z,96365.66
2023-02-19T16:12:24.722Z,96364.45
2023-02-19T16:14:53.971Z,96361.98
2023-02-19T16:17:28.034Z,96363.77
2023-02-19T16:20:01.685Z,96359.17
2023-02-19T16:22:41.149Z,96345.86
2023-02-19T16:25:25.001Z,96343.14
2023-02-19T16:27:53.557Z,96350.84
2023-02-19T16:30:34.021Z,96345.91
2023-02-19T16:33:37.910Z,96354.08
2023-02-19T16:36:41.850Z,96330.41
2023-02-19T16:39:11.896Z,96322.85
2023-02-19T16:41:39.973Z,96319.91
2023-02-19T16:44:20.706Z,96305.59
2023-02-19T16:46:49.617Z,96305.04
2023-02-19T16:49:18.435Z,96295.52
2023-02-19T16:51:47.224Z,96306.30
2023-02-19T16:54:16.310Z,96311.61
2023-02-19T16:56:46.308Z,96322.49
2023-02-19T16:59:14.435Z,96329.63
2023-02-19T17:01:43.222Z,96329.45
2023-02-19T17:04:13.266Z,96331.05
2023-02-19T17:06:41.862Z,96331.66
2023-02-19T17:09:10.464Z,96333.44
2023-02-19T17:11:38.810Z,96350.04
2023-02-19T17:14:08.344Z,96360.63
2023-02-19T17:16:43.543Z,96371.69
2023-02-19T17:19:18.449Z,96394.22
2023-02-19T17:21:47.165Z,96387.25
2023-02-19T17:24:15.364Z,96394.95
2023-02-19T17:26:43.657Z,96391.79
2023-02-19T17:29:14.810Z,96393.88
2023-02-19T17:31:43.386Z,96398.27
2023-02-19T17:34:11.607Z,96391.27
2023-02-19T17:36:41.033Z,96385.40
2023-02-19T17:39:15.321Z,96378.43
2023-02-19T17:41:44.178Z,96377.64
2023-02-19T17:44:13.659Z,96369.66
2023-02-19T17:46:42.650Z,96381.08
2023-02-19T17:49:12.743Z,96380.23
2023-02-19T17:51:46.313Z,96380.13
2023-02-19T17:54:14.611Z,96374.38
2023-02-19T17:56:45.784Z,96369.64
2023-02-19T17:59:13.937Z,96367.48
2023-02-19T18:01:42.148Z,96368.77
2023-02-19T18:04:10.313Z,96369.23
2023-02-19T18:06:38.782Z,96373.81
2023-02-19T18:09:07.078Z,96390.10
2023-02-19T18:11:37.303Z,96392.77
2023-02-19T18:14:08.453Z,96390.41
2023-02-19T18:16:36.654Z,96393.95
2023-02-19T18:19:07.490Z,96400.58
2023-02-19T18:21:37.119Z,96405.61
2023-02-19T18:24:05.837Z,96422.91
2023-02-19T18:26:34.306Z,96457.30
2023-02-19T18:29:05.828Z,96486.05
2023-02-19T18:31:34.581Z,96494.16
2023-02-19T18:34:03.198Z,96490.41
2023-02-19T18:36:31.541Z,96504.59
2023-02-19T18:38:59.673Z,96498.89
2023-02-19T18:41:27.864Z,96493.83
2023-02-19T18:43:56.097Z,96498.16
2023-02-19T18:46:24.230Z,96498.31
2023-02-19T18:48:52.436Z,96504.27
2023-02-19T18:51:23.660Z,96503.39
2023-02-19T18:53:53.831Z,96511.98
2023-02-19T18:56:23.173Z,96533.59
2023-02-19T18:58:51.412Z,96519.10
2023-02-19T19:01:20.335Z,96519.39
2023-02-19T19:03:48.540Z,96532.77
2023-02-19T19:06:18.869Z,96543.47
2023-02-19T19:08:51.530Z,96543.52
2023-02-19T19:11:22.746Z,96552.63
2023-02-19T19:13:51.365Z,96555.00
2023-02-19T19:16:29.616Z,96558.86
2023-02-19T19:18:57.743Z,96570.67
2023-02-19T19:21:27.059Z,96594.90
2023-02-19T19:23:55.281Z,96594.58
2023-02-19T19:26:26.485Z,96601.77
2023-02-19T19:28:55.092Z,96604.91
2023-02-19T19:31:24.950Z,96603.83
2023-02-19T19:33:53.700Z,96608.86
2023-02-19T19:36:23.412Z,96609.41
2023-02-19T19:38:52.003Z,96614.48
2023-02-19T19:41:20.523Z,96621.48
2023-02-19T19:43:48.598Z,96629.07
2023-02-19T19:46:19.863Z,96637.52
2023-02-19T19:48:50.727Z,96644.68
2023-02-19T19:51:19.596Z,96638.53
2023-02-19T19:53:49.852Z,96628.77
2023-02-19T19:56:20.064Z,96624.22
2023-02-19T19:58:49.326Z,96626.45
2023-02-19T20:01:26.441Z,96617.25
2023-02-19T20:03:55.865Z,96612.26
2023-02-19T20:06:44.261Z,96607.93
2023-02-19T20:09:13.765Z,96613.05
2023-02-19T20:11:52.065Z,96619.29
2023-02-19T20:14:22.579Z,96623.67
2023-02-19T20:16:50.846Z,96621.77
2023-02-19T20:19:20.942Z,96627.92
2023-02-19T20:21:54.056Z,96632.44
2023-02-19T20:24:28.980Z,96637.75
2023-02-19T20:26:59.541Z,96637.84
2023-02-19T20:29:34.375Z,96642.63
2023-02-19T20:32:03.936Z,96646.44
2023-02-19T20:34:34.274Z,96651.36
2023-02-19T20:37:05.313Z,96653.51
2023-02-19T20:39:37.629Z,96658.08
2023-02-19T20:42:07.291Z,96656.44
2023-02-19T20:44:36.292Z,96654.38
2023-02-19T20:47:05.334Z,96654.23
2023-02-19T20:49:36.512Z,96650.34
2023-02-19T20:52:08.476Z,96651.80
2023-02-19T20:54:38.668Z,96655.12
2023-02-19T20:57:09.869Z,96661.23
2023-02-19T20:59:39.004Z,96666.98
2023-02-19T21:02:19.703Z,96669.20
2023-02-19T21:04:50.041Z,96679.09
2023-02-19T21:07:20.635Z,96681.33
2023-02-19T21:10:02.256Z,96680.02
2023-02-19T21:12:40.161Z,96681.73
2023-02-19T21:15:12.294Z,96687.33
2023-02-19T21:17:42.220Z,96695.60
2023-02-19T21:20:21.286Z,96695.29
2023-02-19T21:23:15.129Z,96693.14
2023-02-19T21:26:04.312Z,96709.31
2023-02-19T21:28:35.346Z,96716.20
2023-02-19T21:31:08.354Z,96723.10
2023-02-19T21:33:37.650Z,96735.27
2023-02-19T21:36:07.809Z,96736.91
2023-02-19T21:38:39.943Z,96745.54
2023-02-19T21:44:08.123Z,96764.95
2023-02-19T21:46:38.205Z,96770.11
2023-02-19T21:49:12.641Z,96777.51
2023-02-19T21:51:43.417Z,96783.47
2023-02-19T21:54:17.850Z,96789.88
2023-02-19T21:56:46.218Z,96803.29
2023-02-19T21:59:15.659Z,96800.86
2023-02-19T22:01:46.141Z,96820.32
2023-02-19T22:04:18.822Z,96820.08
2023-02-19T22:06:48.005Z,96828.40
2023-02-19T22:09:20.490Z,96833.55
2023-02-19T22:11:48.690Z,96841.02
2023-02-19T22:14:17.452Z,96851.64
2023-02-19T22:16:45.597Z,96855.31
2023-02-19T22:19:14.252Z,96867.02
2023-02-19T22:21:47.031Z,96877.05
2023-02-19T22:24:21.535Z,96879.58
2023-02-19T22:26:57.541Z,96872.88
2023-02-19T22:29:28.774Z,96881.04
2023-02-19T22:31:58.226Z,96882.73
2023-02-19T22:34:28.500Z,96878.52
2023-02-19T22:37:04.449Z,96890.08
2023-02-19T22:39:33.496Z,96890.14
2023-02-19T22:42:02.920Z,96895.48
2023-02-19T22:44:33.997Z,96891.73
2023-02-19T22:47:07.099Z,96885.17
2023-02-19T22:49:43.118Z,96893.98
2023-02-19T22:52:15.682Z,96890.31
2023-02-19T22:54:44.201Z,96883.45
2023-02-19T22:57:15.176Z,96885.93
2023-02-19T22:59:46.219Z,96880.20
2023-02-19T23:02:18.128Z,96885.60
2023-02-19T23:04:53.518Z,96887.27
2023-02-19T23:07:29.360Z,96899.75
2023-02-19T23:09:59.031Z,96899.15
2023-02-19T23:12:29.229Z,96904.14
2023-02-19T23:15:01.247Z,96906.29
2023-02-19T23:17:30.741Z,96904.39
2023-02-19T23:19:59.312Z,96909.05
2023-02-19T23:22:29.488Z,96907.04
2023-02-19T23:24:57.834Z,96904.78
2023-02-19T23:27:27.641Z,96904.47
2023-02-19T23:29:56.974Z,96915.68
2023-02-19T23:32:29.703Z,96913.86
2023-02-19T23:34:58.369Z,96917.75
2023-02-19T23:37:26.591Z,96923.45
2023-02-19T23:39:54.874Z,96921.16
2023-02-19T23:42:24.365Z,96925.64
2023-02-19T23:44:53.631Z,96925.66
2023-02-19T23:47:30.638Z,96933.64
2023-02-19T23:50:00.342Z,96931.42
2023-02-19T23:52:30.257Z,96932.58
2023-02-19T23:55:19.245Z,96940.08
2023-02-19T23:57:49.156Z,96941.75
